createdAt,value
2022-12-12T00:00:44.407Z,100685.38
2022-12-12T00:03:12.019Z,100665.34
2022-12-12T00:05:39.102Z,100681.09
2022-12-12T00:08:06.247Z,100682.03
2022-12-12T00:10:34.705Z,100681.19
2022-12-12T00:13:01.750Z,100687.34
2022-12-12T00:15:28.912Z,100676.09
2022-12-12T00:17:56.430Z,100689.41
2022-12-12T00:20:23.574Z,100684.22
2022-12-12T00:22:50.525Z,100678.19
2022-12-12T00:25:17.468Z,100684.34
2022-12-12T00:27:44.567Z,100683.47
2022-12-12T00:30:12.130Z,100680.94
2022-12-12T00:32:39.202Z,100683.69
2022-12-12T00:35:06.806Z,100676.81
2022-12-12T00:37:34.396Z,100688.25
2022-12-12T00:40:01.417Z,100684.78
2022-12-12T00:42:29.311Z,100686.50
2022-12-12T00:44:56.251Z,100680.50
2022-12-12T00:47:23.301Z,100682.31
2022-12-12T00:49:50.281Z,100684.16
2022-12-12T00:52:17.282Z,100685.16
2022-12-12T00:54:44.183Z,100692.22
2022-12-12T00:57:11.199Z,100699.25
2022-12-12T00:59:38.335Z,100697.53
2022-12-12T01:02:05.383Z,100700.31
2022-12-12T01:04:32.349Z,100709.16
2022-12-12T01:06:59.334Z,100705.72
2022-12-12T01:09:26.240Z,100710.28
2022-12-12T01:11:53.237Z,100720.78
2022-12-12T01:14:20.231Z,100720.00
2022-12-12T01:16:47.487Z,100722.75
2022-12-12T01:19:14.699Z,100727.16
2022-12-12T01:21:41.632Z,100735.13
2022-12-12T01:24:08.624Z,100734.28
2022-12-12T01:26:36.121Z,100738.75
2022-12-12T01:29:03.661Z,100741.41
2022-12-12T01:31:30.822Z,100737.13
2022-12-12T01:33:57.782Z,100737.16
2022-12-12T01:36:25.289Z,100737.16
2022-12-12T01:38:54.606Z,100737.19
2022-12-12T01:41:21.993Z,100740.72
2022-12-12T01:43:49.584Z,100743.31
2022-12-12T01:46:30.766Z,100747.66
2022-12-12T01:49:18.260Z,100733.66
2022-12-12T01:51:48.103Z,100742.34
2022-12-12T01:54:21.759Z,100734.47
2022-12-12T01:56:50.682Z,100728.34
2022-12-12T01:59:21.428Z,100733.47
2022-12-12T02:01:48.978Z,100735.28
2022-12-12T02:04:17.223Z,100735.31
2022-12-12T02:06:46.022Z,100729.38
2022-12-12T02:09:16.048Z,100725.00
2022-12-12T02:11:56.167Z,100741.66
2022-12-12T02:14:40.011Z,100740.72
2022-12-12T02:17:34.058Z,100738.06
2022-12-12T02:20:45.023Z,100741.53
2022-12-12T02:23:34.708Z,100739.78
2022-12-12T02:26:37.008Z,100742.44
2022-12-12T02:29:36.904Z,100738.88
2022-12-12T02:32:31.564Z,100740.66
2022-12-12T02:35:22.682Z,100737.97
2022-12-12T02:38:25.567Z,100741.59
2022-12-12T02:41:16.361Z,100746.06
2022-12-12T02:43:56.765Z,100741.78
2022-12-12T02:46:49.595Z,100744.47
2022-12-12T02:49:26.795Z,100741.00
2022-12-12T02:51:55.100Z,100750.53
2022-12-12T02:54:23.949Z,100745.38
2022-12-12T02:56:57.489Z,100745.38
2022-12-12T02:59:33.721Z,100748.75
2022-12-12T03:02:21.801Z,100753.16
2022-12-12T03:05:54.066Z,100757.63
2022-12-12T03:08:20.937Z,100763.09
2022-12-12T03:10:56.819Z,100753.59
2022-12-12T03:13:57.407Z,100762.53
2022-12-12T03:16:50.832Z,100760.69
2022-12-12T03:19:48.876Z,100758.84
2022-12-12T03:22:50.604Z,100755.31
2022-12-12T03:25:36.714Z,100750.91
2022-12-12T03:28:22.567Z,100759.63
2022-12-12T03:30:55.741Z,100744.72
2022-12-12T03:33:29.769Z,100750.88
2022-12-12T03:36:03.780Z,100755.19
2022-12-12T03:38:36.514Z,100752.56
2022-12-12T03:41:07.363Z,100756.84
2022-12-12T03:43:40.039Z,100749.78
2022-12-12T03:46:41.365Z,100748.09
2022-12-12T03:49:14.430Z,100753.47
2022-12-12T03:51:48.754Z,100749.19
2022-12-12T03:54:31.627Z,100742.19
2022-12-12T03:57:19.567Z,100746.50
2022-12-12T04:00:10.277Z,100743.91
2022-12-12T04:03:07.063Z,100752.66
2022-12-12T04:06:19.403Z,100762.31
2022-12-12T04:09:06.263Z,100754.59
2022-12-12T04:12:03.861Z,100758.16
2022-12-12T04:14:59.862Z,100757.47
2022-12-12T04:18:19.144Z,100758.47
2022-12-12T04:21:32.916Z,100761.16
2022-12-12T04:24:13.449Z,100758.75
2022-12-12T04:27:31.781Z,100759.66
2022-12-12T04:30:10.185Z,100764.91
2022-12-12T04:33:10.869Z,100763.25
2022-12-12T04:35:44.258Z,100767.72
2022-12-12T04:38:18.734Z,100769.44
2022-12-12T04:40:51.940Z,100769.44
2022-12-12T04:43:27.868Z,100763.47
2022-12-12T04:46:05.387Z,100776.75
2022-12-12T04:48:46.733Z,100774.25
2022-12-12T04:51:25.552Z,100774.34
2022-12-12T04:54:03.469Z,100775.28
2022-12-12T04:56:33.885Z,100766.56
2022-12-12T04:59:00.912Z,100774.44
2022-12-12T05:01:54.748Z,100786.72
2022-12-12T05:04:30.052Z,100777.16
2022-12-12T05:07:09.340Z,100782.41
2022-12-12T05:09:36.801Z,100793.72
2022-12-12T05:12:03.943Z,100785.91
2022-12-12T05:14:31.973Z,100788.59
2022-12-12T05:17:06.784Z,100795.66
2022-12-12T05:19:33.829Z,100790.41
2022-12-12T05:22:00.753Z,100779.94
2022-12-12T05:24:31.129Z,100785.19
2022-12-12T05:26:59.232Z,100781.78
2022-12-12T05:29:26.167Z,100790.59
2022-12-12T05:31:53.164Z,100780.16
2022-12-12T05:34:20.186Z,100787.16
2022-12-12T05:36:50.143Z,100787.16
2022-12-12T05:39:17.075Z,100785.31
2022-12-12T05:41:44.001Z,100783.50
2022-12-12T05:44:10.910Z,100775.66
2022-12-12T05:46:37.833Z,100774.78
2022-12-12T05:49:05.743Z,100787.03
2022-12-12T05:51:32.655Z,100789.72
2022-12-12T05:54:00.707Z,100787.16
2022-12-12T05:56:28.224Z,100779.38
2022-12-12T05:58:55.123Z,100781.19
2022-12-12T06:01:22.051Z,100784.81
2022-12-12T06:03:50.849Z,100785.78
2022-12-12T06:06:17.786Z,100788.41
2022-12-12T06:08:44.731Z,100795.41
2022-12-12T06:11:11.710Z,100801.50
2022-12-12T06:13:38.781Z,100798.09
2022-12-12T06:16:08.610Z,100795.56
2022-12-12T06:18:36.557Z,100807.81
2022-12-12T06:21:09.698Z,100802.59
2022-12-12T06:23:41.335Z,100802.59
2022-12-12T06:26:11.988Z,100803.56
2022-12-12T06:28:39.484Z,100804.38
2022-12-12T06:31:11.460Z,100815.75
2022-12-12T06:33:40.640Z,100800.16
2022-12-12T06:36:23.815Z,100811.56
2022-12-12T06:38:56.781Z,100812.47
2022-12-12T06:41:26.447Z,100818.59
2022-12-12T06:43:53.973Z,100813.22
2022-12-12T06:46:24.217Z,100813.22
2022-12-12T06:48:51.864Z,100814.94
2022-12-12T06:51:26.313Z,100822.81
2022-12-12T06:53:54.686Z,100818.56
2022-12-12T06:56:25.495Z,100822.94
2022-12-12T06:58:54.754Z,100836.00
2022-12-12T07:01:23.714Z,100837.78
2022-12-12T07:03:53.653Z,100827.34
2022-12-12T07:06:23.836Z,100833.38
2022-12-12T07:08:52.001Z,100829.94
2022-12-12T07:11:23.755Z,100829.97
2022-12-12T07:13:51.831Z,100836.13
2022-12-12T07:16:19.211Z,100844.84
2022-12-12T07:18:47.202Z,100851.88
2022-12-12T07:21:17.277Z,100841.41
2022-12-12T07:23:45.062Z,100851.00
2022-12-12T07:26:19.495Z,100845.75
2022-12-12T07:28:47.311Z,100838.78
2022-12-12T07:31:18.182Z,100844.97
2022-12-12T07:33:45.879Z,100840.63
2022-12-12T07:36:14.519Z,100839.72
2022-12-12T07:38:42.340Z,100836.22
2022-12-12T07:41:12.941Z,100851.09
2022-12-12T07:43:44.395Z,100851.09
2022-12-12T07:46:20.182Z,100841.47
2022-12-12T07:48:48.072Z,100851.16
2022-12-12T07:51:15.951Z,100852.03
2022-12-12T07:53:43.076Z,100850.31
2022-12-12T07:56:13.743Z,100853.81
2022-12-12T07:58:40.762Z,100848.53
2022-12-12T08:01:18.793Z,100844.13
2022-12-12T08:03:47.486Z,100849.38
2022-12-12T08:06:18.493Z,100853.56
2022-12-12T08:08:47.198Z,100849.91
2022-12-12T08:11:18.738Z,100855.16
2022-12-12T08:13:45.819Z,100865.66
2022-12-12T08:16:19.694Z,100864.81
2022-12-12T08:18:47.632Z,100860.53
2022-12-12T08:21:21.454Z,100853.63
2022-12-12T08:23:52.145Z,100854.47
2022-12-12T08:26:19.249Z,100851.88
2022-12-12T08:28:49.150Z,100852.72
2022-12-12T08:31:18.116Z,100859.63
2022-12-12T08:33:46.469Z,100854.44
2022-12-12T08:36:21.087Z,100870.09
2022-12-12T08:38:48.940Z,100861.31
2022-12-12T08:41:16.403Z,100864.78
2022-12-12T08:43:44.378Z,100868.22
2022-12-12T08:46:17.462Z,100867.28
2022-12-12T08:48:46.683Z,100857.56
2022-12-12T08:51:14.683Z,100860.97
2022-12-12T08:53:45.917Z,100864.41
2022-12-12T08:56:13.541Z,100866.06
2022-12-12T08:58:41.022Z,100870.38
2022-12-12T09:01:19.890Z,100872.00
2022-12-12T09:03:47.930Z,100872.75
2022-12-12T09:06:15.800Z,100876.94
2022-12-12T09:08:43.364Z,100869.81
2022-12-12T09:11:10.813Z,100881.91
2022-12-12T09:13:38.768Z,100878.25
2022-12-12T09:16:07.756Z,100890.28
2022-12-12T09:18:36.583Z,100890.00
2022-12-12T09:21:04.982Z,100880.00
2022-12-12T09:23:32.847Z,100877.00
2022-12-12T09:26:08.108Z,100881.88
2022-12-12T09:28:35.543Z,100884.09
2022-12-12T09:31:06.563Z,100883.56
2022-12-12T09:33:34.539Z,100889.06
2022-12-12T09:36:04.884Z,100888.38
2022-12-12T09:38:32.329Z,100882.47
2022-12-12T09:41:20.777Z,100884.25
2022-12-12T09:44:03.667Z,100878.97
2022-12-12T09:46:38.070Z,100877.47
2022-12-12T09:49:47.757Z,100882.09
2022-12-12T09:52:31.246Z,100875.38
2022-12-12T09:55:22.792Z,100871.91
2022-12-12T09:58:00.821Z,100873.78
2022-12-12T10:00:31.934Z,100871.66
2022-12-12T10:03:39.403Z,100872.66
2022-12-12T10:09:27.807Z,100880.81
2022-12-12T10:11:55.851Z,100886.88
2022-12-12T10:14:50.653Z,100877.28
2022-12-12T10:17:28.842Z,100871.44
2022-12-12T10:20:28.064Z,100872.69
2022-12-12T10:23:11.893Z,100867.53
2022-12-12T10:25:53.199Z,100864.97
2022-12-12T10:28:24.388Z,100853.91
2022-12-12T10:31:25.458Z,100856.72
2022-12-12T10:34:01.651Z,100858.94
2022-12-12T10:37:03.617Z,100841.81
2022-12-12T10:39:54.008Z,100845.06
2022-12-12T10:43:03.925Z,100856.84
2022-12-12T10:45:36.969Z,100853.72
2022-12-12T10:48:04.557Z,100842.94
2022-12-12T10:50:38.712Z,100849.34
2022-12-12T10:53:11.591Z,100853.72
2022-12-12T10:55:53.939Z,100852.78
2022-12-12T10:58:44.663Z,100854.78
2022-12-12T11:01:38.538Z,100859.97
2022-12-12T11:04:09.025Z,100862.56
2022-12-12T11:06:46.035Z,100855.44
2022-12-12T11:09:28.281Z,100857.41
2022-12-12T11:12:09.482Z,100865.69
2022-12-12T11:14:51.608Z,100857.72
2022-12-12T11:17:25.643Z,100859.06
2022-12-12T11:19:55.656Z,100855.03
2022-12-12T11:22:23.031Z,100843.28
2022-12-12T11:24:51.424Z,100849.94
2022-12-12T11:27:30.758Z,100861.44
2022-12-12T11:30:28.347Z,100861.44
2022-12-12T11:32:56.497Z,100851.75
2022-12-12T11:35:36.577Z,100857.81
2022-12-12T11:38:51.996Z,100848.66
2022-12-12T11:41:19.095Z,100846.00
2022-12-12T11:43:48.815Z,100840.97
2022-12-12T11:46:18.969Z,100839.56
2022-12-12T11:48:51.637Z,100836.09
2022-12-12T11:51:33.984Z,100841.63
2022-12-12T11:54:31.167Z,100851.34
2022-12-12T11:57:06.936Z,100844.97
2022-12-12T12:00:13.968Z,100837.75
2022-12-12T12:03:08.785Z,100838.41
2022-12-12T12:06:06.866Z,100836.41
2022-12-12T12:09:05.640Z,100839.47
2022-12-12T12:12:14.049Z,100831.78
2022-12-12T12:15:31.530Z,100826.53
2022-12-12T12:18:46.261Z,100830.16
2022-12-12T12:21:44.435Z,100832.81
2022-12-12T12:24:53.053Z,100830.03
2022-12-12T12:27:49.199Z,100834.56
2022-12-12T12:30:31.406Z,100827.72
2022-12-12T12:33:31.575Z,100824.28
2022-12-12T12:36:24.209Z,100826.00
2022-12-12T12:39:01.835Z,100820.81
2022-12-12T12:42:38.229Z,100825.94
2022-12-12T12:45:31.787Z,100825.94
2022-12-12T12:48:14.440Z,100819.75
2022-12-12T12:50:51.385Z,100820.50
2022-12-12T12:53:33.214Z,100816.00
2022-12-12T12:56:12.003Z,100809.91
2022-12-12T12:58:46.056Z,100804.47
2022-12-12T13:01:21.282Z,100808.97
2022-12-12T13:03:59.912Z,100807.28
2022-12-12T13:06:57.463Z,100809.34
2022-12-12T13:09:48.245Z,100809.41
2022-12-12T13:12:43.118Z,100812.13
2022-12-12T13:15:40.119Z,100811.38
2022-12-12T13:18:14.581Z,100806.16
2022-12-12T13:20:48.159Z,100813.13
2022-12-12T13:23:47.762Z,100815.75
2022-12-12T13:26:27.074Z,100820.22
2022-12-12T13:29:23.478Z,100816.75
2022-12-12T13:32:29.647Z,100812.44
2022-12-12T13:35:11.300Z,100809.03
2022-12-12T13:37:49.089Z,100819.69
2022-12-12T13:40:39.486Z,100814.53
2022-12-12T13:43:34.144Z,100824.09
2022-12-12T13:46:22.208Z,100827.34
2022-12-12T13:49:06.749Z,100828.16
2022-12-12T13:51:45.105Z,100832.47
2022-12-12T13:54:14.221Z,100830.66
2022-12-12T13:56:44.052Z,100830.50
2022-12-12T13:59:29.815Z,100833.84
2022-12-12T14:02:34.484Z,100837.13
2022-12-12T14:05:13.217Z,100835.47
2022-12-12T14:07:53.412Z,100829.34
2022-12-12T14:10:33.414Z,100840.88
2022-12-12T14:13:40.041Z,100833.00
2022-12-12T14:16:25.245Z,100823.38
2022-12-12T14:18:52.165Z,100818.06
2022-12-12T14:21:23.875Z,100823.22
2022-12-12T14:23:52.761Z,100824.97
2022-12-12T14:26:28.755Z,100827.69
2022-12-12T14:29:17.472Z,100824.38
2022-12-12T14:32:26.178Z,100832.56
2022-12-12T14:35:24.035Z,100833.69
2022-12-12T14:38:14.654Z,100825.06
2022-12-12T14:40:48.386Z,100830.31
2022-12-12T14:43:42.407Z,100828.63
2022-12-12T14:46:17.870Z,100827.78
2022-12-12T14:48:45.058Z,100820.91
2022-12-12T14:51:33.278Z,100829.59
2022-12-12T14:54:03.470Z,100838.38
2022-12-12T14:56:37.141Z,100823.78
2022-12-12T14:59:22.144Z,100839.69
2022-12-12T15:01:52.041Z,100840.72
2022-12-12T15:04:27.991Z,100843.66
2022-12-12T15:06:57.339Z,100843.81
2022-12-12T15:09:30.911Z,100840.50
2022-12-12T15:12:15.239Z,100838.91
2022-12-12T15:14:48.090Z,100851.38
2022-12-12T15:17:34.698Z,100853.19
2022-12-12T15:20:09.805Z,100851.50
2022-12-12T15:22:40.458Z,100853.31
2022-12-12T15:25:19.517Z,100855.22
2022-12-12T15:27:55.836Z,100855.63
2022-12-12T15:30:34.336Z,100851.53
2022-12-12T15:33:03.748Z,100846.44
2022-12-12T15:35:32.119Z,100845.72
2022-12-12T15:38:12.773Z,100835.31
2022-12-12T15:40:41.238Z,100836.34
2022-12-12T15:43:15.950Z,100848.59
2022-12-12T15:46:01.081Z,100847.03
2022-12-12T15:48:28.262Z,100855.09
2022-12-12T15:51:03.447Z,100859.75
2022-12-12T15:53:38.359Z,100865.09
2022-12-12T15:56:19.854Z,100872.13
2022-12-12T15:58:52.370Z,100866.00
2022-12-12T16:01:25.925Z,100861.81
2022-12-12T16:04:22.260Z,100862.72
2022-12-12T16:06:49.899Z,100857.75
2022-12-12T16:09:25.793Z,100865.72
2022-12-12T16:11:54.408Z,100870.19
2022-12-12T16:14:42.214Z,100863.28
2022-12-12T16:17:28.254Z,100869.59
2022-12-12T16:20:01.462Z,100869.72
2022-12-12T16:22:43.744Z,100868.94
2022-12-12T16:25:28.078Z,100864.81
2022-12-12T16:28:11.431Z,100873.50
2022-12-12T16:30:43.621Z,100867.50
2022-12-12T16:33:38.718Z,100866.72
2022-12-12T16:36:13.764Z,100865.00
2022-12-12T16:38:42.105Z,100840.03
2022-12-12T16:41:16.983Z,100859.06
2022-12-12T16:43:44.964Z,100846.97
2022-12-12T16:46:25.926Z,100862.69
2022-12-12T16:49:03.169Z,100860.25
2022-12-12T16:51:34.370Z,100874.09
2022-12-12T16:54:01.544Z,100875.91
2022-12-12T16:56:28.439Z,100840.38
2022-12-12T16:58:56.249Z,100865.63
2022-12-12T17:01:23.622Z,100858.91
2022-12-12T17:03:50.808Z,100848.69
2022-12-12T17:06:17.968Z,100863.72
2022-12-12T17:08:45.438Z,100869.91
2022-12-12T17:11:13.359Z,100876.00
2022-12-12T17:13:58.843Z,100876.88
2022-12-12T17:16:27.921Z,100863.72
2022-12-12T17:18:55.380Z,100859.34
2022-12-12T17:21:22.318Z,100863.63
2022-12-12T17:23:49.238Z,100869.69
2022-12-12T17:26:16.152Z,100879.22
2022-12-12T17:28:43.384Z,100863.69
2022-12-12T17:31:10.464Z,100854.09
2022-12-12T17:33:49.510Z,100862.09
2022-12-12T17:36:17.331Z,100863.00
2022-12-12T17:38:44.204Z,100850.03
2022-12-12T17:41:12.629Z,100863.84
2022-12-12T17:43:42.257Z,100861.19
2022-12-12T17:46:14.523Z,100859.47
2022-12-12T17:48:46.671Z,100862.06
2022-12-12T17:51:21.865Z,100869.06
2022-12-12T17:53:51.036Z,100856.94
2022-12-12T17:56:25.001Z,100867.16
2022-12-12T17:58:52.413Z,100845.50
2022-12-12T18:01:27.180Z,100868.88
2022-12-12T18:03:54.731Z,100866.34
2022-12-12T18:06:23.732Z,100873.47
2022-12-12T18:08:52.460Z,100868.38
2022-12-12T18:11:24.955Z,100870.91
2022-12-12T18:13:53.838Z,100844.13
2022-12-12T18:16:23.827Z,100866.75
2022-12-12T18:18:52.077Z,100868.44
2022-12-12T18:21:51.840Z,100869.47
2022-12-12T18:24:10.842Z,100860.84
2022-12-12T18:26:37.895Z,100872.28
2022-12-12T18:29:07.849Z,100873.22
2022-12-12T18:31:35.840Z,100869.81
2022-12-12T18:34:03.264Z,100872.44
2022-12-12T18:36:31.864Z,100874.28
2022-12-12T18:39:02.007Z,100876.94
2022-12-12T18:41:31.806Z,100873.56
2022-12-12T18:44:03.106Z,100875.34
2022-12-12T18:46:33.959Z,100870.22
2022-12-12T18:49:03.150Z,100869.44
2022-12-12T18:51:31.076Z,100875.63
2022-12-12T18:54:08.103Z,100873.91
2022-12-12T18:56:39.810Z,100869.47
2022-12-12T18:59:07.467Z,100853.66
2022-12-12T19:01:36.152Z,100867.63
2022-12-12T19:04:12.267Z,100883.66
2022-12-12T19:06:42.691Z,100887.94
2022-12-12T19:09:15.946Z,100873.22
2022-12-12T19:11:43.531Z,100875.91
2022-12-12T19:14:13.140Z,100878.63
2022-12-12T19:16:42.014Z,100868.19
2022-12-12T19:19:12.142Z,100870.06
2022-12-12T19:21:40.714Z,100868.19
2022-12-12T19:24:12.208Z,100865.69
2022-12-12T19:26:43.515Z,100870.16
2022-12-12T19:29:21.478Z,100875.38
2022-12-12T19:31:52.530Z,100868.56
2022-12-12T19:34:23.166Z,100874.59
2022-12-12T19:36:50.067Z,100878.97
2022-12-12T19:39:16.981Z,100865.13
2022-12-12T19:41:44.020Z,100862.81
2022-12-12T19:44:12.978Z,100886.34
2022-12-12T19:46:42.424Z,100890.81
2022-12-12T19:49:12.886Z,100883.84
2022-12-12T19:51:40.429Z,100889.19
2022-12-12T19:54:11.838Z,100884.81
2022-12-12T19:56:42.662Z,100888.38
2022-12-12T19:59:16.729Z,100888.47
2022-12-12T20:01:44.530Z,100884.16
2022-12-12T20:04:25.474Z,100887.66
2022-12-12T20:06:53.178Z,100874.72
2022-12-12T20:09:23.697Z,100878.25
2022-12-12T20:11:50.927Z,100877.50
2022-12-12T20:14:21.925Z,100872.28
2022-12-12T20:16:49.693Z,100865.31
2022-12-12T20:19:17.448Z,100860.13
2022-12-12T20:22:03.368Z,100864.50
2022-12-12T20:24:33.388Z,100869.81
2022-12-12T20:27:03.046Z,100873.28
2022-12-12T20:29:30.540Z,100873.25
2022-12-12T20:31:59.601Z,100862.84
2022-12-12T20:34:27.047Z,100877.75
2022-12-12T20:36:55.658Z,100873.47
2022-12-12T20:39:24.642Z,100872.63
2022-12-12T20:41:53.183Z,100885.00
2022-12-12T20:44:20.382Z,100882.50
2022-12-12T20:46:47.941Z,100876.56
2022-12-12T20:49:19.896Z,100878.34
2022-12-12T20:51:56.269Z,100874.97
2022-12-12T20:54:25.460Z,100870.69
2022-12-12T20:56:54.158Z,100874.22
2022-12-12T20:59:21.154Z,100873.38
2022-12-12T21:01:48.255Z,100876.13
2022-12-12T21:04:15.772Z,100881.44
2022-12-12T21:06:48.008Z,100873.63
2022-12-12T21:09:23.146Z,100887.63
2022-12-12T21:11:53.600Z,100881.00
2022-12-12T21:14:20.528Z,100870.53
2022-12-12T21:16:47.660Z,100844.03
2022-12-12T21:19:14.931Z,100854.31
2022-12-12T21:21:43.768Z,100853.84
2022-12-12T21:24:16.756Z,100844.81
2022-12-12T21:26:44.234Z,100835.41
2022-12-12T21:29:11.998Z,100844.13
2022-12-12T21:31:46.604Z,100845.47
2022-12-12T21:34:17.840Z,100849.81
2022-12-12T21:36:44.744Z,100850.56
2022-12-12T21:39:12.263Z,100847.56
2022-12-12T21:41:41.939Z,100868.91
2022-12-12T21:44:09.847Z,100869.41
2022-12-12T21:46:37.182Z,100857.97
2022-12-12T21:49:22.834Z,100875.06
2022-12-12T21:51:50.108Z,100870.13
2022-12-12T21:54:17.050Z,100865.66
2022-12-12T21:56:44.475Z,100864.44
2022-12-12T21:59:13.563Z,100868.41
2022-12-12T22:01:41.881Z,100864.59
2022-12-12T22:04:11.780Z,100865.84
2022-12-12T22:06:39.661Z,100869.56
2022-12-12T22:09:10.258Z,100868.09
2022-12-12T22:11:50.649Z,100863.81
2022-12-12T22:14:21.234Z,100864.78
2022-12-12T22:16:48.678Z,100868.44
2022-12-12T22:19:16.756Z,100872.88
2022-12-12T22:21:47.256Z,100878.22
2022-12-12T22:24:16.120Z,100875.59
2022-12-12T22:26:47.020Z,100885.25
2022-12-12T22:29:18.387Z,100875.69
2022-12-12T22:31:45.536Z,100871.41
2022-12-12T22:34:24.344Z,100891.50
2022-12-12T22:36:53.212Z,100881.13
2022-12-12T22:39:24.422Z,100887.31
2022-12-12T22:41:52.244Z,100890.88
2022-12-12T22:44:21.392Z,100877.06
2022-12-12T22:46:51.175Z,100885.75
2022-12-12T22:49:22.402Z,100899.75
2022-12-12T22:51:49.883Z,100883.19
2022-12-12T22:54:17.664Z,100891.97
2022-12-12T22:56:45.317Z,100890.22
2022-12-12T22:59:13.605Z,100893.63
2022-12-12T23:01:42.980Z,100905.00
2022-12-12T23:04:12.882Z,100890.22
2022-12-12T23:06:43.505Z,100901.63
2022-12-12T23:09:22.853Z,100892.91
2022-12-12T23:11:50.355Z,100888.63
2022-12-12T23:14:21.694Z,100903.38
2022-12-12T23:16:50.448Z,100894.63
2022-12-12T23:19:22.085Z,100892.09
2022-12-12T23:21:49.725Z,100886.94
2022-12-12T23:24:16.822Z,100887.03
2022-12-12T23:26:44.753Z,100882.69
2022-12-12T23:29:16.708Z,100880.97
2022-12-12T23:31:44.579Z,100888.03
2022-12-12T23:34:20.843Z,100874.97
2022-12-12T23:36:54.904Z,100882.81
2022-12-12T23:39:23.871Z,100888.09
2022-12-12T23:41:51.005Z,100871.66
2022-12-12T23:44:19.886Z,100892.56
2022-12-12T23:46:47.301Z,100883.81
2022-12-12T23:49:22.553Z,100883.78
2022-12-12T23:51:55.845Z,100892.56
2022-12-12T23:54:27.096Z,100875.94
2022-12-12T23:56:54.812Z,100869.00
2022-12-12T23:59:21.986Z,100868.94
